sensor_id;sensor_type;location;lat;lon;timestamp;temperature;humidity
75262;DHT22;63859;51.064;4.580;2023-06-22T00:00:40;21.40;99.90
75262;DHT22;63859;51.064;4.580;2023-06-22T00:03:07;21.40;99.90
75262;DHT22;63859;51.064;4.580;2023-06-22T00:05:33;21.30;99.90
75262;DHT22;63859;51.064;4.580;2023-06-22T00:08:02;21.30;99.90
75262;DHT22;63859;51.064;4.580;2023-06-22T00:10:29;21.20;99.90
75262;DHT22;63859;51.064;4.580;2023-06-22T00:12:54;21.20;99.90
75262;DHT22;63859;51.064;4.580;2023-06-22T00:15:20;21.20;99.90
75262;DHT22;63859;51.064;4.580;2023-06-22T00:17:46;21.20;99.90
75262;DHT22;63859;51.064;4.580;2023-06-22T00:20:11;21.20;99.90
75262;DHT22;63859;51.064;4.580;2023-06-22T00:22:37;21.20;99.90
75262;DHT22;63859;51.064;4.580;2023-06-22T00:25:06;21.10;99.90
75262;DHT22;63859;51.064;4.580;2023-06-22T00:27:32;21.10;99.90
75262;DHT22;63859;51.064;4.580;2023-06-22T00:29:59;21.10;99.90
75262;DHT22;63859;51.064;4.580;2023-06-22T00:32:25;21.20;99.90
75262;DHT22;63859;51.064;4.580;2023-06-22T00:34:50;21.20;99.90
75262;DHT22;63859;51.064;4.580;2023-06-22T00:37:16;21.10;99.90
75262;DHT22;63859;51.064;4.580;2023-06-22T00:39:43;21.10;99.90
75262;DHT22;63859;51.064;4.580;2023-06-22T00:42:08;21.00;99.90
75262;DHT22;63859;51.064;4.580;2023-06-22T00:44:35;21.00;99.90
75262;DHT22;63859;51.064;4.580;2023-06-22T00:47:02;20.90;99.90
75262;DHT22;63859;51.064;4.580;2023-06-22T00:49:28;20.80;99.90
75262;DHT22;63859;51.064;4.580;2023-06-22T00:51:54;20.70;99.90
75262;DHT22;63859;51.064;4.580;2023-06-22T00:54:20;20.70;99.90
75262;DHT22;63859;51.064;4.580;2023-06-22T00:56:55;20.60;99.90
75262;DHT22;63859;51.064;4.580;2023-06-22T00:59:23;20.60;99.90
75262;DHT22;63859;51.064;4.580;2023-06-22T01:01:49;20.60;99.90
75262;DHT22;63859;51.064;4.580;2023-06-22T01:04:15;20.60;99.90
75262;DHT22;63859;51.064;4.580;2023-06-22T01:07:19;20.60;99.90
75262;DHT22;63859;51.064;4.580;2023-06-22T01:12:30;20.60;99.90
75262;DHT22;63859;51.064;4.580;2023-06-22T01:15:08;20.60;99.90
75262;DHT22;63859;51.064;4.580;2023-06-22T01:17:36;20.60;99.90
75262;DHT22;63859;51.064;4.580;2023-06-22T01:20:07;20.50;99.90
75262;DHT22;63859;51.064;4.580;2023-06-22T01:25:33;20.50;99.90
75262;DHT22;63859;51.064;4.580;2023-06-22T01:30:52;20.60;99.90
75262;DHT22;63859;51.064;4.580;2023-06-22T01:33:33;20.60;99.90
75262;DHT22;63859;51.064;4.580;2023-06-22T01:36:01;20.60;99.90
75262;DHT22;63859;51.064;4.580;2023-06-22T01:38:29;20.50;99.90
75262;DHT22;63859;51.064;4.580;2023-06-22T01:40:56;20.50;99.90
75262;DHT22;63859;51.064;4.580;2023-06-22T01:43:25;20.50;99.90
75262;DHT22;63859;51.064;4.580;2023-06-22T01:45:52;20.60;99.90
75262;DHT22;63859;51.064;4.580;2023-06-22T01:48:19;20.50;99.90
75262;DHT22;63859;51.064;4.580;2023-06-22T01:50:45;20.50;99.90
75262;DHT22;63859;51.064;4.580;2023-06-22T01:53:12;20.50;99.90
75262;DHT22;63859;51.064;4.580;2023-06-22T01:55:37;20.50;99.90
75262;DHT22;63859;51.064;4.580;2023-06-22T01:58:03;20.50;99.90
75262;DHT22;63859;51.064;4.580;2023-06-22T02:00:33;20.40;99.90
75262;DHT22;63859;51.064;4.580;2023-06-22T02:03:00;20.40;99.90
75262;DHT22;63859;51.064;4.580;2023-06-22T02:05:34;20.30;99.90
75262;DHT22;63859;51.064;4.580;2023-06-22T02:08:07;20.20;99.90
75262;DHT22;63859;51.064;4.580;2023-06-22T02:10:35;20.20;99.90
75262;DHT22;63859;51.064;4.580;2023-06-22T02:13:05;20.20;99.90
75262;DHT22;63859;51.064;4.580;2023-06-22T02:15:31;20.20;99.90
75262;DHT22;63859;51.064;4.580;2023-06-22T02:17:57;20.10;99.90
75262;DHT22;63859;51.064;4.580;2023-06-22T02:20:24;20.10;99.90
75262;DHT22;63859;51.064;4.580;2023-06-22T02:22:49;20.10;99.90
75262;DHT22;63859;51.064;4.580;2023-06-22T02:25:15;20.00;99.90
75262;DHT22;63859;51.064;4.580;2023-06-22T02:27:41;20.00;99.90
75262;DHT22;63859;51.064;4.580;2023-06-22T02:30:08;20.00;99.90
75262;DHT22;63859;51.064;4.580;2023-06-22T02:32:35;20.00;99.90
75262;DHT22;63859;51.064;4.580;2023-06-22T02:35:01;20.00;99.90
75262;DHT22;63859;51.064;4.580;2023-06-22T02:37:32;20.00;99.90
75262;DHT22;63859;51.064;4.580;2023-06-22T02:39:57;20.00;99.90
75262;DHT22;63859;51.064;4.580;2023-06-22T02:42:23;20.00;99.90
75262;DHT22;63859;51.064;4.580;2023-06-22T02:44:49;19.90;99.90
75262;DHT22;63859;51.064;4.580;2023-06-22T02:47:15;19.90;99.90
75262;DHT22;63859;51.064;4.580;2023-06-22T02:49:40;19.90;99.90
75262;DHT22;63859;51.064;4.580;2023-06-22T02:52:07;19.90;99.90
75262;DHT22;63859;51.064;4.580;2023-06-22T02:54:32;19.70;99.90
75262;DHT22;63859;51.064;4.580;2023-06-22T02:56:59;19.70;99.90
75262;DHT22;63859;51.064;4.580;2023-06-22T02:59:28;19.60;99.90
75262;DHT22;63859;51.064;4.580;2023-06-22T03:01:54;19.60;99.90
75262;DHT22;63859;51.064;4.580;2023-06-22T03:04:19;19.60;99.90
75262;DHT22;63859;51.064;4.580;2023-06-22T03:06:45;19.50;99.90
75262;DHT22;63859;51.064;4.580;2023-06-22T03:09:16;19.50;99.90
75262;DHT22;63859;51.064;4.580;2023-06-22T03:11:42;19.50;99.90
75262;DHT22;63859;51.064;4.580;2023-06-22T03:14:08;19.50;99.90
75262;DHT22;63859;51.064;4.580;2023-06-22T03:16:34;19.40;99.90
75262;DHT22;63859;51.064;4.580;2023-06-22T03:19:00;19.50;99.90
75262;DHT22;63859;51.064;4.580;2023-06-22T03:21:28;19.50;99.90
75262;DHT22;63859;51.064;4.580;2023-06-22T03:23:54;19.50;99.90
75262;DHT22;63859;51.064;4.580;2023-06-22T03:26:19;19.40;99.90
75262;DHT22;63859;51.064;4.580;2023-06-22T03:28:45;19.40;99.90
75262;DHT22;63859;51.064;4.580;2023-06-22T03:31:11;19.30;99.90
75262;DHT22;63859;51.064;4.580;2023-06-22T03:33:37;19.30;99.90
75262;DHT22;63859;51.064;4.580;2023-06-22T03:36:03;19.30;99.90
75262;DHT22;63859;51.064;4.580;2023-06-22T03:38:28;19.30;99.90
75262;DHT22;63859;51.064;4.580;2023-06-22T03:40:54;19.30;99.90
75262;DHT22;63859;51.064;4.580;2023-06-22T03:43:20;19.20;99.90
75262;DHT22;63859;51.064;4.580;2023-06-22T03:45:45;19.20;99.90
75262;DHT22;63859;51.064;4.580;2023-06-22T03:48:12;19.20;99.90
75262;DHT22;63859;51.064;4.580;2023-06-22T03:50:38;19.30;99.90
75262;DHT22;63859;51.064;4.580;2023-06-22T03:53:03;19.30;99.90
75262;DHT22;63859;51.064;4.580;2023-06-22T03:55:29;19.30;99.90
75262;DHT22;63859;51.064;4.580;2023-06-22T03:57:55;19.30;99.90
75262;DHT22;63859;51.064;4.580;2023-06-22T04:00:23;19.30;99.90
75262;DHT22;63859;51.064;4.580;2023-06-22T04:02:48;19.30;99.90
75262;DHT22;63859;51.064;4.580;2023-06-22T04:05:14;19.20;99.90
75262;DHT22;63859;51.064;4.580;2023-06-22T04:07:40;19.30;99.90
75262;DHT22;63859;51.064;4.580;2023-06-22T04:10:06;19.20;99.90
75262;DHT22;63859;51.064;4.580;2023-06-22T04:12:33;19.30;99.90
75262;DHT22;63859;51.064;4.580;2023-06-22T04:14:59;19.30;99.90
75262;DHT22;63859;51.064;4.580;2023-06-22T04:17:25;19.30;99.90
75262;DHT22;63859;51.064;4.580;2023-06-22T04:19:51;19.40;99.90
75262;DHT22;63859;51.064;4.580;2023-06-22T04:22:17;19.40;99.90
75262;DHT22;63859;51.064;4.580;2023-06-22T04:24:43;19.40;99.90
75262;DHT22;63859;51.064;4.580;2023-06-22T04:27:09;19.40;99.90
75262;DHT22;63859;51.064;4.580;2023-06-22T04:29:35;19.40;99.90
75262;DHT22;63859;51.064;4.580;2023-06-22T04:32:00;19.40;99.90
75262;DHT22;63859;51.064;4.580;2023-06-22T04:34:30;19.40;99.90
75262;DHT22;63859;51.064;4.580;2023-06-22T04:36:56;19.50;99.90
75262;DHT22;63859;51.064;4.580;2023-06-22T04:39:22;19.50;99.90
75262;DHT22;63859;51.064;4.580;2023-06-22T04:41:49;19.50;99.90
75262;DHT22;63859;51.064;4.580;2023-06-22T04:44:18;19.60;99.90
75262;DHT22;63859;51.064;4.580;2023-06-22T04:46:57;19.60;99.90
75262;DHT22;63859;51.064;4.580;2023-06-22T04:49:27;19.60;99.90
75262;DHT22;63859;51.064;4.580;2023-06-22T04:52:00;19.60;99.90
75262;DHT22;63859;51.064;4.580;2023-06-22T04:54:26;19.60;99.90
75262;DHT22;63859;51.064;4.580;2023-06-22T04:56:52;19.70;99.90
75262;DHT22;63859;51.064;4.580;2023-06-22T04:59:24;19.70;99.90
75262;DHT22;63859;51.064;4.580;2023-06-22T05:01:57;19.80;99.90
75262;DHT22;63859;51.064;4.580;2023-06-22T05:04:23;19.80;99.90
75262;DHT22;63859;51.064;4.580;2023-06-22T05:06:50;19.80;99.90
75262;DHT22;63859;51.064;4.580;2023-06-22T05:09:16;20.00;99.90
75262;DHT22;63859;51.064;4.580;2023-06-22T05:11:43;20.00;99.90
75262;DHT22;63859;51.064;4.580;2023-06-22T05:14:09;20.10;99.90
75262;DHT22;63859;51.064;4.580;2023-06-22T05:16:35;20.10;99.90
75262;DHT22;63859;51.064;4.580;2023-06-22T05:19:01;20.10;99.90
75262;DHT22;63859;51.064;4.580;2023-06-22T05:21:29;20.10;99.90
75262;DHT22;63859;51.064;4.580;2023-06-22T05:23:56;20.20;99.90
75262;DHT22;63859;51.064;4.580;2023-06-22T05:26:26;20.20;99.90
75262;DHT22;63859;51.064;4.580;2023-06-22T05:28:52;20.20;99.90
75262;DHT22;63859;51.064;4.580;2023-06-22T05:31:18;20.30;99.90
75262;DHT22;63859;51.064;4.580;2023-06-22T05:33:49;20.30;99.90
75262;DHT22;63859;51.064;4.580;2023-06-22T05:36:15;20.40;99.90
75262;DHT22;63859;51.064;4.580;2023-06-22T05:38:41;20.40;99.90
75262;DHT22;63859;51.064;4.580;2023-06-22T05:41:08;20.50;99.90
75262;DHT22;63859;51.064;4.580;2023-06-22T05:43:34;20.50;99.90
75262;DHT22;63859;51.064;4.580;2023-06-22T05:46:04;20.60;99.90
75262;DHT22;63859;51.064;4.580;2023-06-22T05:48:30;20.60;99.90
75262;DHT22;63859;51.064;4.580;2023-06-22T05:50:55;20.70;99.90
75262;DHT22;63859;51.064;4.580;2023-06-22T05:53:21;20.70;99.90
75262;DHT22;63859;51.064;4.580;2023-06-22T05:55:47;20.70;99.90
75262;DHT22;63859;51.064;4.580;2023-06-22T05:58:12;20.70;99.90
75262;DHT22;63859;51.064;4.580;2023-06-22T06:00:41;20.60;99.90
75262;DHT22;63859;51.064;4.580;2023-06-22T06:03:09;20.70;99.90
75262;DHT22;63859;51.064;4.580;2023-06-22T06:05:35;20.70;99.90
75262;DHT22;63859;51.064;4.580;2023-06-22T06:08:03;20.70;99.90
75262;DHT22;63859;51.064;4.580;2023-06-22T06:10:30;20.70;99.90
75262;DHT22;63859;51.064;4.580;2023-06-22T06:12:56;20.70;99.90
75262;DHT22;63859;51.064;4.580;2023-06-22T06:15:22;20.70;99.90
75262;DHT22;63859;51.064;4.580;2023-06-22T06:17:49;20.70;99.90
75262;DHT22;63859;51.064;4.580;2023-06-22T06:20:18;20.60;99.90
75262;DHT22;63859;51.064;4.580;2023-06-22T06:22:44;20.60;99.90
75262;DHT22;63859;51.064;4.580;2023-06-22T06:25:10;20.60;99.90
75262;DHT22;63859;51.064;4.580;2023-06-22T06:27:44;20.60;99.90
75262;DHT22;63859;51.064;4.580;2023-06-22T06:30:11;20.60;99.90
75262;DHT22;63859;51.064;4.580;2023-06-22T06:32:37;20.60;99.90
75262;DHT22;63859;51.064;4.580;2023-06-22T06:35:08;20.60;99.90
75262;DHT22;63859;51.064;4.580;2023-06-22T06:37:39;20.60;99.90
75262;DHT22;63859;51.064;4.580;2023-06-22T06:40:10;20.60;99.90
75262;DHT22;63859;51.064;4.580;2023-06-22T06:43:02;20.50;99.90
75262;DHT22;63859;51.064;4.580;2023-06-22T06:45:28;20.50;99.90
75262;DHT22;63859;51.064;4.580;2023-06-22T06:47:54;20.60;99.90
75262;DHT22;63859;51.064;4.580;2023-06-22T06:50:20;20.60;99.90
75262;DHT22;63859;51.064;4.580;2023-06-22T06:52:46;20.60;99.90
75262;DHT22;63859;51.064;4.580;2023-06-22T06:55:11;20.60;99.90
75262;DHT22;63859;51.064;4.580;2023-06-22T06:57:41;20.70;99.90
75262;DHT22;63859;51.064;4.580;2023-06-22T07:00:08;20.70;99.90
75262;DHT22;63859;51.064;4.580;2023-06-22T07:02:38;20.80;99.90
75262;DHT22;63859;51.064;4.580;2023-06-22T07:05:04;20.80;99.90
75262;DHT22;63859;51.064;4.580;2023-06-22T07:07:31;20.90;99.90
75262;DHT22;63859;51.064;4.580;2023-06-22T07:09:56;20.90;99.90
75262;DHT22;63859;51.064;4.580;2023-06-22T07:12:22;21.00;99.90
75262;DHT22;63859;51.064;4.580;2023-06-22T07:14:48;21.00;99.90
75262;DHT22;63859;51.064;4.580;2023-06-22T07:17:13;21.10;99.90
75262;DHT22;63859;51.064;4.580;2023-06-22T07:19:39;21.10;99.90
75262;DHT22;63859;51.064;4.580;2023-06-22T07:22:05;21.10;99.90
75262;DHT22;63859;51.064;4.580;2023-06-22T07:24:31;21.10;99.90
75262;DHT22;63859;51.064;4.580;2023-06-22T07:26:58;21.10;99.90
75262;DHT22;63859;51.064;4.580;2023-06-22T07:29:25;21.10;99.90
75262;DHT22;63859;51.064;4.580;2023-06-22T07:31:52;21.20;99.90
75262;DHT22;63859;51.064;4.580;2023-06-22T07:34:17;21.10;99.90
75262;DHT22;63859;51.064;4.580;2023-06-22T07:36:44;21.20;99.90
75262;DHT22;63859;51.064;4.580;2023-06-22T07:39:09;21.20;99.90
75262;DHT22;63859;51.064;4.580;2023-06-22T07:41:35;21.20;99.90
75262;DHT22;63859;51.064;4.580;2023-06-22T07:44:02;21.20;99.90
75262;DHT22;63859;51.064;4.580;2023-06-22T07:46:28;21.30;99.90
75262;DHT22;63859;51.064;4.580;2023-06-22T07:48:56;21.30;99.90
75262;DHT22;63859;51.064;4.580;2023-06-22T07:51:22;21.30;99.90
75262;DHT22;63859;51.064;4.580;2023-06-22T07:53:47;21.30;99.90
75262;DHT22;63859;51.064;4.580;2023-06-22T07:56:13;21.30;99.90
75262;DHT22;63859;51.064;4.580;2023-06-22T07:58:44;21.30;99.90
75262;DHT22;63859;51.064;4.580;2023-06-22T08:01:10;21.20;99.90
75262;DHT22;63859;51.064;4.580;2023-06-22T08:03:36;21.20;99.90
75262;DHT22;63859;51.064;4.580;2023-06-22T08:06:02;21.20;99.90
75262;DHT22;63859;51.064;4.580;2023-06-22T08:08:28;21.30;99.90
75262;DHT22;63859;51.064;4.580;2023-06-22T08:10:53;21.20;99.90
75262;DHT22;63859;51.064;4.580;2023-06-22T08:13:19;21.20;99.90
75262;DHT22;63859;51.064;4.580;2023-06-22T08:15:45;21.20;99.90
75262;DHT22;63859;51.064;4.580;2023-06-22T08:18:10;21.20;99.90
75262;DHT22;63859;51.064;4.580;2023-06-22T08:20:36;21.30;99.90
75262;DHT22;63859;51.064;4.580;2023-06-22T08:23:02;21.40;99.90
75262;DHT22;63859;51.064;4.580;2023-06-22T08:25:32;21.40;99.90
75262;DHT22;63859;51.064;4.580;2023-06-22T08:27:58;21.40;99.90
75262;DHT22;63859;51.064;4.580;2023-06-22T08:30:23;21.40;99.90
75262;DHT22;63859;51.064;4.580;2023-06-22T08:32:49;21.30;99.90
75262;DHT22;63859;51.064;4.580;2023-06-22T08:35:15;21.30;99.90
75262;DHT22;63859;51.064;4.580;2023-06-22T08:37:40;21.40;99.90
75262;DHT22;63859;51.064;4.580;2023-06-22T08:40:08;21.40;99.90
75262;DHT22;63859;51.064;4.580;2023-06-22T08:42:40;21.30;99.90
75262;DHT22;63859;51.064;4.580;2023-06-22T08:45:06;21.30;99.90
75262;DHT22;63859;51.064;4.580;2023-06-22T08:47:32;21.40;99.90
75262;DHT22;63859;51.064;4.580;2023-06-22T08:49:57;21.40;99.90
75262;DHT22;63859;51.064;4.580;2023-06-22T08:52:23;21.30;99.90
75262;DHT22;63859;51.064;4.580;2023-06-22T08:54:49;21.30;99.90
75262;DHT22;63859;51.064;4.580;2023-06-22T08:57:15;21.30;99.90
75262;DHT22;63859;51.064;4.580;2023-06-22T08:59:42;21.30;99.90
75262;DHT22;63859;51.064;4.580;2023-06-22T09:02:07;21.20;99.90
75262;DHT22;63859;51.064;4.580;2023-06-22T09:04:33;21.20;99.90
75262;DHT22;63859;51.064;4.580;2023-06-22T09:07:03;21.20;99.90
75262;DHT22;63859;51.064;4.580;2023-06-22T09:09:29;21.20;99.90
75262;DHT22;63859;51.064;4.580;2023-06-22T09:11:54;21.20;99.90
75262;DHT22;63859;51.064;4.580;2023-06-22T09:14:20;21.20;99.90
75262;DHT22;63859;51.064;4.580;2023-06-22T09:16:45;21.10;99.90
75262;DHT22;63859;51.064;4.580;2023-06-22T09:19:11;21.10;99.90
75262;DHT22;63859;51.064;4.580;2023-06-22T09:21:37;21.10;99.90
75262;DHT22;63859;51.064;4.580;2023-06-22T09:24:03;21.10;99.90
75262;DHT22;63859;51.064;4.580;2023-06-22T09:26:29;21.10;99.90
75262;DHT22;63859;51.064;4.580;2023-06-22T09:28:54;21.10;99.90
75262;DHT22;63859;51.064;4.580;2023-06-22T09:31:20;21.10;99.90
75262;DHT22;63859;51.064;4.580;2023-06-22T09:33:53;21.10;99.90
75262;DHT22;63859;51.064;4.580;2023-06-22T09:36:22;21.10;99.90
75262;DHT22;63859;51.064;4.580;2023-06-22T09:38:49;21.10;99.90
75262;DHT22;63859;51.064;4.580;2023-06-22T09:41:20;21.10;99.90
75262;DHT22;63859;51.064;4.580;2023-06-22T09:43:46;21.10;99.90
75262;DHT22;63859;51.064;4.580;2023-06-22T09:46:14;21.10;99.90
75262;DHT22;63859;51.064;4.580;2023-06-22T09:48:40;21.10;99.90
75262;DHT22;63859;51.064;4.580;2023-06-22T09:51:06;21.10;99.90
75262;DHT22;63859;51.064;4.580;2023-06-22T09:53:31;21.10;99.90
75262;DHT22;63859;51.064;4.580;2023-06-22T09:55:57;21.10;99.90
75262;DHT22;63859;51.064;4.580;2023-06-22T09:58:23;21.10;99.90
75262;DHT22;63859;51.064;4.580;2023-06-22T10:00:48;21.10;99.90
75262;DHT22;63859;51.064;4.580;2023-06-22T10:03:14;21.10;99.90
75262;DHT22;63859;51.064;4.580;2023-06-22T10:05:40;21.00;99.90
75262;DHT22;63859;51.064;4.580;2023-06-22T10:08:05;21.10;99.90
75262;DHT22;63859;51.064;4.580;2023-06-22T10:10:33;21.00;99.90
75262;DHT22;63859;51.064;4.580;2023-06-22T10:13:07;20.90;99.90
75262;DHT22;63859;51.064;4.580;2023-06-22T10:15:34;20.90;99.90
75262;DHT22;63859;51.064;4.580;2023-06-22T10:18:00;20.90;99.90
75262;DHT22;63859;51.064;4.580;2023-06-22T10:20:25;20.80;99.90
75262;DHT22;63859;51.064;4.580;2023-06-22T10:22:51;20.80;99.90
75262;DHT22;63859;51.064;4.580;2023-06-22T10:25:17;20.70;99.90
75262;DHT22;63859;51.064;4.580;2023-06-22T10:27:43;20.70;99.90
75262;DHT22;63859;51.064;4.580;2023-06-22T10:30:10;20.50;99.90
75262;DHT22;63859;51.064;4.580;2023-06-22T10:32:38;20.40;99.90
75262;DHT22;63859;51.064;4.580;2023-06-22T10:35:04;20.40;99.90
75262;DHT22;63859;51.064;4.580;2023-06-22T10:37:30;20.30;99.90
75262;DHT22;63859;51.064;4.580;2023-06-22T10:39:55;20.10;99.90
75262;DHT22;63859;51.064;4.580;2023-06-22T10:42:21;20.00;99.90
75262;DHT22;63859;51.064;4.580;2023-06-22T10:44:46;19.90;99.90
75262;DHT22;63859;51.064;4.580;2023-06-22T10:47:12;19.80;99.90
75262;DHT22;63859;51.064;4.580;2023-06-22T10:49:38;19.80;99.90
75262;DHT22;63859;51.064;4.580;2023-06-22T10:52:08;19.90;99.90
75262;DHT22;63859;51.064;4.580;2023-06-22T10:54:34;19.80;99.90
75262;DHT22;63859;51.064;4.580;2023-06-22T10:57:01;19.80;99.90
75262;DHT22;63859;51.064;4.580;2023-06-22T10:59:27;19.80;99.90
75262;DHT22;63859;51.064;4.580;2023-06-22T11:01:55;19.90;99.90
75262;DHT22;63859;51.064;4.580;2023-06-22T11:04:20;19.90;99.90
75262;DHT22;63859;51.064;4.580;2023-06-22T11:06:47;20.00;99.90
75262;DHT22;63859;51.064;4.580;2023-06-22T11:09:13;20.00;99.90
75262;DHT22;63859;51.064;4.580;2023-06-22T11:11:44;19.90;99.90
75262;DHT22;63859;51.064;4.580;2023-06-22T11:14:09;19.90;99.90
75262;DHT22;63859;51.064;4.580;2023-06-22T11:16:35;19.90;99.90
75262;DHT22;63859;51.064;4.580;2023-06-22T11:19:00;19.80;99.90
75262;DHT22;63859;51.064;4.580;2023-06-22T11:21:26;19.70;99.90
75262;DHT22;63859;51.064;4.580;2023-06-22T11:23:52;19.60;99.90
75262;DHT22;63859;51.064;4.580;2023-06-22T11:26:17;19.60;99.90
75262;DHT22;63859;51.064;4.580;2023-06-22T11:28:43;19.50;99.90
75262;DHT22;63859;51.064;4.580;2023-06-22T11:31:09;19.40;99.90
75262;DHT22;63859;51.064;4.580;2023-06-22T11:33:34;19.40;99.90
75262;DHT22;63859;51.064;4.580;2023-06-22T11:36:00;19.30;99.90
75262;DHT22;63859;51.064;4.580;2023-06-22T11:38:26;19.30;99.90
75262;DHT22;63859;51.064;4.580;2023-06-22T11:40:51;19.30;99.90
75262;DHT22;63859;51.064;4.580;2023-06-22T11:43:17;19.30;99.90
75262;DHT22;63859;51.064;4.580;2023-06-22T11:45:42;19.20;99.90
75262;DHT22;63859;51.064;4.580;2023-06-22T11:48:08;19.20;99.90
75262;DHT22;63859;51.064;4.580;2023-06-22T11:50:34;19.30;99.90
75262;DHT22;63859;51.064;4.580;2023-06-22T11:53:02;19.20;99.90
75262;DHT22;63859;51.064;4.580;2023-06-22T11:55:28;19.30;99.90
75262;DHT22;63859;51.064;4.580;2023-06-22T11:57:57;19.30;99.90
75262;DHT22;63859;51.064;4.580;2023-06-22T12:00:29;19.20;99.90
75262;DHT22;63859;51.064;4.580;2023-06-22T12:02:55;19.30;99.90
75262;DHT22;63859;51.064;4.580;2023-06-22T12:05:22;19.30;99.90
75262;DHT22;63859;51.064;4.580;2023-06-22T12:07:49;19.30;99.90
75262;DHT22;63859;51.064;4.580;2023-06-22T12:10:15;19.30;99.90
75262;DHT22;63859;51.064;4.580;2023-06-22T12:12:41;19.30;99.90
75262;DHT22;63859;51.064;4.580;2023-06-22T12:17:34;19.40;99.90
75262;DHT22;63859;51.064;4.580;2023-06-22T12:20:00;19.40;99.90
75262;DHT22;63859;51.064;4.580;2023-06-22T12:22:25;19.40;99.90
75262;DHT22;63859;51.064;4.580;2023-06-22T12:24:51;19.40;99.90
75262;DHT22;63859;51.064;4.580;2023-06-22T12:27:17;19.40;99.90
75262;DHT22;63859;51.064;4.580;2023-06-22T12:29:46;19.40;99.90
75262;DHT22;63859;51.064;4.580;2023-06-22T12:32:13;19.40;99.90
75262;DHT22;63859;51.064;4.580;2023-06-22T12:34:39;19.40;99.90
75262;DHT22;63859;51.064;4.580;2023-06-22T12:37:05;19.40;99.90
75262;DHT22;63859;51.064;4.580;2023-06-22T12:39:33;19.40;99.90
75262;DHT22;63859;51.064;4.580;2023-06-22T12:41:59;19.40;99.90
75262;DHT22;63859;51.064;4.580;2023-06-22T12:44:25;19.40;99.90
75262;DHT22;63859;51.064;4.580;2023-06-22T12:46:50;19.40;99.90
75262;DHT22;63859;51.064;4.580;2023-06-22T12:49:16;19.40;99.90
75262;DHT22;63859;51.064;4.580;2023-06-22T12:51:43;19.40;99.90
75262;DHT22;63859;51.064;4.580;2023-06-22T12:54:09;19.40;99.90
75262;DHT22;63859;51.064;4.580;2023-06-22T12:56:35;19.30;99.90
75262;DHT22;63859;51.064;4.580;2023-06-22T12:59:00;19.30;99.90
75262;DHT22;63859;51.064;4.580;2023-06-22T13:01:29;19.30;99.90
75262;DHT22;63859;51.064;4.580;2023-06-22T13:03:58;19.30;99.90
75262;DHT22;63859;51.064;4.580;2023-06-22T13:06:24;19.30;99.90
75262;DHT22;63859;51.064;4.580;2023-06-22T13:08:50;19.30;99.90
75262;DHT22;63859;51.064;4.580;2023-06-22T13:11:16;19.30;99.90
75262;DHT22;63859;51.064;4.580;2023-06-22T13:13:43;19.30;99.90
75262;DHT22;63859;51.064;4.580;2023-06-22T13:16:09;19.20;99.90
75262;DHT22;63859;51.064;4.580;2023-06-22T13:18:34;19.30;99.90
75262;DHT22;63859;51.064;4.580;2023-06-22T13:21:01;19.30;99.90
75262;DHT22;63859;51.064;4.580;2023-06-22T13:23:27;19.20;99.90
75262;DHT22;63859;51.064;4.580;2023-06-22T13:25:53;19.30;99.90
75262;DHT22;63859;51.064;4.580;2023-06-22T13:28:18;19.20;99.90
75262;DHT22;63859;51.064;4.580;2023-06-22T13:30:46;19.20;99.90
75262;DHT22;63859;51.064;4.580;2023-06-22T13:33:13;19.20;99.90
75262;DHT22;63859;51.064;4.580;2023-06-22T13:35:38;19.20;99.90
75262;DHT22;63859;51.064;4.580;2023-06-22T13:38:05;19.20;99.90
75262;DHT22;63859;51.064;4.580;2023-06-22T13:40:30;19.20;99.90
75262;DHT22;63859;51.064;4.580;2023-06-22T13:42:56;19.10;99.90
75262;DHT22;63859;51.064;4.580;2023-06-22T13:45:22;19.10;99.90
75262;DHT22;63859;51.064;4.580;2023-06-22T13:47:48;19.20;99.90
75262;DHT22;63859;51.064;4.580;2023-06-22T13:50:13;19.20;99.90
75262;DHT22;63859;51.064;4.580;2023-06-22T13:52:39;19.20;99.90
75262;DHT22;63859;51.064;4.580;2023-06-22T13:55:05;19.20;99.90
75262;DHT22;63859;51.064;4.580;2023-06-22T13:57:33;19.20;99.90
75262;DHT22;63859;51.064;4.580;2023-06-22T13:59:59;19.20;99.90
75262;DHT22;63859;51.064;4.580;2023-06-22T14:02:26;19.20;99.90
75262;DHT22;63859;51.064;4.580;2023-06-22T14:04:53;19.20;99.90
75262;DHT22;63859;51.064;4.580;2023-06-22T14:07:19;19.20;99.90
75262;DHT22;63859;51.064;4.580;2023-06-22T14:09:46;19.20;99.90
75262;DHT22;63859;51.064;4.580;2023-06-22T14:12:12;19.20;99.90
75262;DHT22;63859;51.064;4.580;2023-06-22T14:14:37;19.20;99.90
75262;DHT22;63859;51.064;4.580;2023-06-22T14:17:04;19.20;99.90
75262;DHT22;63859;51.064;4.580;2023-06-22T14:19:30;19.20;99.90
75262;DHT22;63859;51.064;4.580;2023-06-22T14:21:55;19.10;99.90
75262;DHT22;63859;51.064;4.580;2023-06-22T14:24:22;19.10;99.90
75262;DHT22;63859;51.064;4.580;2023-06-22T14:26:48;19.10;99.90
75262;DHT22;63859;51.064;4.580;2023-06-22T14:29:14;19.00;99.90
75262;DHT22;63859;51.064;4.580;2023-06-22T14:31:39;19.10;99.90
75262;DHT22;63859;51.064;4.580;2023-06-22T14:34:05;19.00;99.90
75262;DHT22;63859;51.064;4.580;2023-06-22T14:36:31;19.00;99.90
75262;DHT22;63859;51.064;4.580;2023-06-22T14:38:57;19.00;99.90
75262;DHT22;63859;51.064;4.580;2023-06-22T14:41:23;19.00;99.90
75262;DHT22;63859;51.064;4.580;2023-06-22T14:43:50;19.00;99.90
75262;DHT22;63859;51.064;4.580;2023-06-22T14:46:19;19.10;99.90
75262;DHT22;63859;51.064;4.580;2023-06-22T14:48:45;19.10;99.90
75262;DHT22;63859;51.064;4.580;2023-06-22T14:51:12;19.10;99.90
75262;DHT22;63859;51.064;4.580;2023-06-22T14:53:38;19.10;99.90
75262;DHT22;63859;51.064;4.580;2023-06-22T14:56:04;19.10;99.90
75262;DHT22;63859;51.064;4.580;2023-06-22T14:58:33;19.10;99.90
75262;DHT22;63859;51.064;4.580;2023-06-22T15:01:03;19.20;99.90
75262;DHT22;63859;51.064;4.580;2023-06-22T15:03:30;19.20;99.90
75262;DHT22;63859;51.064;4.580;2023-06-22T15:05:57;19.30;99.90
75262;DHT22;63859;51.064;4.580;2023-06-22T15:08:24;19.30;99.90
75262;DHT22;63859;51.064;4.580;2023-06-22T15:10:50;19.30;99.90
75262;DHT22;63859;51.064;4.580;2023-06-22T15:13:16;19.40;99.90
75262;DHT22;63859;51.064;4.580;2023-06-22T15:15:43;19.40;99.90
75262;DHT22;63859;51.064;4.580;2023-06-22T15:18:08;19.40;99.90
75262;DHT22;63859;51.064;4.580;2023-06-22T15:20:34;19.40;99.90
75262;DHT22;63859;51.064;4.580;2023-06-22T15:23:00;19.50;99.90
75262;DHT22;63859;51.064;4.580;2023-06-22T15:25:25;19.50;99.90
75262;DHT22;63859;51.064;4.580;2023-06-22T15:27:51;19.50;99.90
75262;DHT22;63859;51.064;4.580;2023-06-22T15:30:17;19.50;99.90
75262;DHT22;63859;51.064;4.580;2023-06-22T15:32:45;19.50;99.90
75262;DHT22;63859;51.064;4.580;2023-06-22T15:35:12;19.60;99.90
75262;DHT22;63859;51.064;4.580;2023-06-22T15:37:39;19.50;99.90